sensor_id;sensor_type;location;lat;lon;timestamp;temperature;humidity
15959;DHT22;8078;47.822;9.402;2024-01-11T00:00:36;-5.00;1.00
15959;DHT22;8078;47.822;9.402;2024-01-11T00:03:03;-5.10;1.00
15959;DHT22;8078;47.822;9.402;2024-01-11T00:05:28;-5.10;1.00
15959;DHT22;8078;47.822;9.402;2024-01-11T00:07:54;-5.10;1.00
15959;DHT22;8078;47.822;9.402;2024-01-11T00:10:20;-5.10;1.00
15959;DHT22;8078;47.822;9.402;2024-01-11T00:12:46;-5.10;1.00
15959;DHT22;8078;47.822;9.402;2024-01-11T00:15:12;-5.20;1.00
15959;DHT22;8078;47.822;9.402;2024-01-11T00:17:38;-5.10;1.00
15959;DHT22;8078;47.822;9.402;2024-01-11T00:20:04;-5.20;1.00
15959;DHT22;8078;47.822;9.402;2024-01-11T00:22:30;-5.30;1.00
15959;DHT22;8078;47.822;9.402;2024-01-11T00:24:56;-5.30;1.00
15959;DHT22;8078;47.822;9.402;2024-01-11T01:57:31;-5.50;1.00
15959;DHT22;8078;47.822;9.402;2024-01-11T01:59:57;-5.50;1.00
15959;DHT22;8078;47.822;9.402;2024-01-11T02:02:23;-5.40;1.00
15959;DHT22;8078;47.822;9.402;2024-01-11T02:04:49;-5.50;1.00
15959;DHT22;8078;47.822;9.402;2024-01-11T02:07:15;-5.50;1.00
15959;DHT22;8078;47.822;9.402;2024-01-11T02:09:41;-5.40;1.00
15959;DHT22;8078;47.822;9.402;2024-01-11T02:12:08;-5.40;1.00
15959;DHT22;8078;47.822;9.402;2024-01-11T02:14:37;-5.30;1.00
15959;DHT22;8078;47.822;9.402;2024-01-11T02:17:03;-5.20;1.00
15959;DHT22;8078;47.822;9.402;2024-01-11T02:19:29;-5.10;1.00
15959;DHT22;8078;47.822;9.402;2024-01-11T02:21:54;-5.20;1.00
15959;DHT22;8078;47.822;9.402;2024-01-11T02:24:23;-5.30;1.00
15959;DHT22;8078;47.822;9.402;2024-01-11T02:26:59;-5.30;1.00
15959;DHT22;8078;47.822;9.402;2024-01-11T02:29:25;-5.40;1.00
15959;DHT22;8078;47.822;9.402;2024-01-11T02:31:51;-5.40;1.00
15959;DHT22;8078;47.822;9.402;2024-01-11T02:34:17;-5.50;1.00
15959;DHT22;8078;47.822;9.402;2024-01-11T02:36:44;-5.50;1.00
15959;DHT22;8078;47.822;9.402;2024-01-11T02:39:09;-5.60;1.00
15959;DHT22;8078;47.822;9.402;2024-01-11T02:41:37;-5.60;1.00
15959;DHT22;8078;47.822;9.402;2024-01-11T02:44:03;-5.60;1.00
15959;DHT22;8078;47.822;9.402;2024-01-11T02:46:29;-5.70;1.00
15959;DHT22;8078;47.822;9.402;2024-01-11T02:48:55;-5.70;1.00
15959;DHT22;8078;47.822;9.402;2024-01-11T02:51:21;-5.80;1.00
15959;DHT22;8078;47.822;9.402;2024-01-11T02:53:46;-5.90;1.00
15959;DHT22;8078;47.822;9.402;2024-01-11T05:15:09;-6.50;1.00
15959;DHT22;8078;47.822;9.402;2024-01-11T05:17:34;-6.50;1.00
15959;DHT22;8078;47.822;9.402;2024-01-11T05:20:00;-6.50;1.00
15959;DHT22;8078;47.822;9.402;2024-01-11T05:22:25;-6.50;1.00
15959;DHT22;8078;47.822;9.402;2024-01-11T05:24:51;-6.50;1.00
15959;DHT22;8078;47.822;9.402;2024-01-11T05:27:16;-6.50;1.00
15959;DHT22;8078;47.822;9.402;2024-01-11T05:29:42;-6.50;1.00
15959;DHT22;8078;47.822;9.402;2024-01-11T05:32:07;-6.50;1.00
15959;DHT22;8078;47.822;9.402;2024-01-11T05:34:33;-6.50;1.00
15959;DHT22;8078;47.822;9.402;2024-01-11T05:36:59;-6.60;1.00
15959;DHT22;8078;47.822;9.402;2024-01-11T05:39:24;-6.60;1.00
15959;DHT22;8078;47.822;9.402;2024-01-11T05:41:50;-6.60;1.00
15959;DHT22;8078;47.822;9.402;2024-01-11T05:44:15;-6.50;1.00
15959;DHT22;8078;47.822;9.402;2024-01-11T05:46:41;-6.60;1.00
15959;DHT22;8078;47.822;9.402;2024-01-11T05:49:06;-6.60;1.00
15959;DHT22;8078;47.822;9.402;2024-01-11T05:51:32;-6.60;1.00
15959;DHT22;8078;47.822;9.402;2024-01-11T05:53:58;-6.60;1.00
15959;DHT22;8078;47.822;9.402;2024-01-11T05:56:24;-6.60;1.00
15959;DHT22;8078;47.822;9.402;2024-01-11T05:58:49;-6.60;1.00
15959;DHT22;8078;47.822;9.402;2024-01-11T06:01:15;-6.60;1.00
15959;DHT22;8078;47.822;9.402;2024-01-11T06:03:40;-6.60;1.00
15959;DHT22;8078;47.822;9.402;2024-01-11T06:06:06;-6.60;1.00
15959;DHT22;8078;47.822;9.402;2024-01-11T06:08:32;-6.60;1.00
15959;DHT22;8078;47.822;9.402;2024-01-11T06:10:58;-6.60;1.00
15959;DHT22;8078;47.822;9.402;2024-01-11T06:13:24;-6.60;1.00
15959;DHT22;8078;47.822;9.402;2024-01-11T06:15:49;-6.60;1.00
15959;DHT22;8078;47.822;9.402;2024-01-11T06:18:16;-6.60;1.00
15959;DHT22;8078;47.822;9.402;2024-01-11T06:20:41;-6.60;1.00
15959;DHT22;8078;47.822;9.402;2024-01-11T06:23:07;-6.60;1.00
15959;DHT22;8078;47.822;9.402;2024-01-11T06:25:32;-6.60;1.00
15959;DHT22;8078;47.822;9.402;2024-01-11T06:27:59;-6.70;1.00
15959;DHT22;8078;47.822;9.402;2024-01-11T06:30:24;-6.70;1.00
15959;DHT22;8078;47.822;9.402;2024-01-11T06:32:50;-6.70;1.00
15959;DHT22;8078;47.822;9.402;2024-01-11T06:35:15;-6.70;1.00
15959;DHT22;8078;47.822;9.402;2024-01-11T06:37:41;-6.70;1.00
15959;DHT22;8078;47.822;9.402;2024-01-11T06:40:07;-6.70;1.00
15959;DHT22;8078;47.822;9.402;2024-01-11T06:42:34;-6.80;1.00
15959;DHT22;8078;47.822;9.402;2024-01-11T06:44:59;-6.70;1.00
15959;DHT22;8078;47.822;9.402;2024-01-11T06:47:25;-6.80;1.00
15959;DHT22;8078;47.822;9.402;2024-01-11T06:49:51;-6.80;1.00
15959;DHT22;8078;47.822;9.402;2024-01-11T06:52:16;-6.80;1.00
15959;DHT22;8078;47.822;9.402;2024-01-11T06:54:42;-6.80;1.00
15959;DHT22;8078;47.822;9.402;2024-01-11T06:57:07;-6.80;1.00
15959;DHT22;8078;47.822;9.402;2024-01-11T06:59:33;-6.80;1.00
15959;DHT22;8078;47.822;9.402;2024-01-11T07:01:59;-6.80;1.00
15959;DHT22;8078;47.822;9.402;2024-01-11T07:04:24;-6.80;1.00
15959;DHT22;8078;47.822;9.402;2024-01-11T07:06:50;-6.80;1.00
15959;DHT22;8078;47.822;9.402;2024-01-11T07:09:15;-6.80;1.00
15959;DHT22;8078;47.822;9.402;2024-01-11T07:11:42;-6.80;1.00
15959;DHT22;8078;47.822;9.402;2024-01-11T07:14:08;-6.70;1.00
15959;DHT22;8078;47.822;9.402;2024-01-11T07:16:34;-6.80;1.00
15959;DHT22;8078;47.822;9.402;2024-01-11T07:18:59;-6.80;1.00
15959;DHT22;8078;47.822;9.402;2024-01-11T07:21:25;-6.80;1.00
15959;DHT22;8078;47.822;9.402;2024-01-11T07:23:55;-6.70;1.00
15959;DHT22;8078;47.822;9.402;2024-01-11T07:26:22;-6.70;1.00
15959;DHT22;8078;47.822;9.402;2024-01-11T07:28:48;-6.70;1.00
15959;DHT22;8078;47.822;9.402;2024-01-11T07:31:14;-6.70;1.00
15959;DHT22;8078;47.822;9.402;2024-01-11T07:33:40;-6.60;1.00
15959;DHT22;8078;47.822;9.402;2024-01-11T07:36:07;-6.60;1.00
15959;DHT22;8078;47.822;9.402;2024-01-11T07:38:33;-6.60;1.00
15959;DHT22;8078;47.822;9.402;2024-01-11T07:40:58;-6.60;1.00
15959;DHT22;8078;47.822;9.402;2024-01-11T07:43:24;-6.50;1.00
15959;DHT22;8078;47.822;9.402;2024-01-11T07:45:51;-6.50;1.00
15959;DHT22;8078;47.822;9.402;2024-01-11T07:48:16;-6.40;1.00
15959;DHT22;8078;47.822;9.402;2024-01-11T07:50:42;-6.30;1.00
15959;DHT22;8078;47.822;9.402;2024-01-11T07:53:07;-6.20;1.00
15959;DHT22;8078;47.822;9.402;2024-01-11T07:55:33;-6.20;1.00
15959;DHT22;8078;47.822;9.402;2024-01-11T07:57:58;-6.20;1.00
15959;DHT22;8078;47.822;9.402;2024-01-11T08:00:24;-6.20;1.00
15959;DHT22;8078;47.822;9.402;2024-01-11T08:02:50;-6.10;1.00
15959;DHT22;8078;47.822;9.402;2024-01-11T08:05:15;-6.00;1.00
15959;DHT22;8078;47.822;9.402;2024-01-11T08:07:41;-6.00;1.00
15959;DHT22;8078;47.822;9.402;2024-01-11T08:10:08;-6.00;1.00
15959;DHT22;8078;47.822;9.402;2024-01-11T08:12:35;-5.90;1.00
15959;DHT22;8078;47.822;9.402;2024-01-11T08:15:00;-5.90;1.00
15959;DHT22;8078;47.822;9.402;2024-01-11T08:17:26;-5.90;1.00
15959;DHT22;8078;47.822;9.402;2024-01-11T08:19:52;-5.90;1.00
15959;DHT22;8078;47.822;9.402;2024-01-11T08:22:17;-5.90;1.00
15959;DHT22;8078;47.822;9.402;2024-01-11T08:24:43;-5.90;1.00
15959;DHT22;8078;47.822;9.402;2024-01-11T08:27:08;-6.10;1.00
15959;DHT22;8078;47.822;9.402;2024-01-11T08:29:34;-6.20;1.00
15959;DHT22;8078;47.822;9.402;2024-01-11T08:32:00;-6.10;1.00
15959;DHT22;8078;47.822;9.402;2024-01-11T08:34:29;-6.30;1.00
15959;DHT22;8078;47.822;9.402;2024-01-11T08:36:55;-6.20;1.00
15959;DHT22;8078;47.822;9.402;2024-01-11T08:39:20;-6.00;1.00
15959;DHT22;8078;47.822;9.402;2024-01-11T08:41:47;-5.80;1.00
15959;DHT22;8078;47.822;9.402;2024-01-11T08:44:13;-5.70;1.00
15959;DHT22;8078;47.822;9.402;2024-01-11T08:46:38;-5.70;1.00
15959;DHT22;8078;47.822;9.402;2024-01-11T08:49:04;-5.70;1.00
15959;DHT22;8078;47.822;9.402;2024-01-11T08:51:30;-5.40;1.00
15959;DHT22;8078;47.822;9.402;2024-01-11T08:53:55;-5.30;1.00
15959;DHT22;8078;47.822;9.402;2024-01-11T08:56:22;-5.30;1.00
15959;DHT22;8078;47.822;9.402;2024-01-11T08:58:47;-5.50;1.00
15959;DHT22;8078;47.822;9.402;2024-01-11T09:01:16;-5.50;1.00
15959;DHT22;8078;47.822;9.402;2024-01-11T09:03:41;-5.40;1.00
15959;DHT22;8078;47.822;9.402;2024-01-11T09:06:07;-5.30;1.00
15959;DHT22;8078;47.822;9.402;2024-01-11T09:08:33;-5.40;1.00
15959;DHT22;8078;47.822;9.402;2024-01-11T09:10:59;-5.50;1.00
15959;DHT22;8078;47.822;9.402;2024-01-11T09:13:26;-5.40;1.00
15959;DHT22;8078;47.822;9.402;2024-01-11T09:15:52;-5.30;1.00
15959;DHT22;8078;47.822;9.402;2024-01-11T09:18:19;-5.50;1.00
15959;DHT22;8078;47.822;9.402;2024-01-11T09:20:44;-5.40;1.00
15959;DHT22;8078;47.822;9.402;2024-01-11T09:23:12;-5.60;1.00
15959;DHT22;8078;47.822;9.402;2024-01-11T09:25:38;-5.60;1.00
15959;DHT22;8078;47.822;9.402;2024-01-11T09:28:04;-5.70;1.00
15959;DHT22;8078;47.822;9.402;2024-01-11T09:30:29;-5.50;1.00
15959;DHT22;8078;47.822;9.402;2024-01-11T09:32:55;-5.30;1.00
15959;DHT22;8078;47.822;9.402;2024-01-11T09:35:24;-5.10;1.00
15959;DHT22;8078;47.822;9.402;2024-01-11T09:37:50;-4.90;1.00
15959;DHT22;8078;47.822;9.402;2024-01-11T09:40:16;-4.60;1.00
15959;DHT22;8078;47.822;9.402;2024-01-11T09:42:42;-4.50;1.00
15959;DHT22;8078;47.822;9.402;2024-01-11T09:45:12;-4.40;1.00
15959;DHT22;8078;47.822;9.402;2024-01-11T09:47:39;-4.40;1.00
15959;DHT22;8078;47.822;9.402;2024-01-11T09:50:06;-4.60;1.00
15959;DHT22;8078;47.822;9.402;2024-01-11T09:52:31;-4.40;1.00
15959;DHT22;8078;47.822;9.402;2024-01-11T09:55:00;-4.30;1.00
15959;DHT22;8078;47.822;9.402;2024-01-11T09:57:31;-4.30;1.00
15959;DHT22;8078;47.822;9.402;2024-01-11T09:59:58;-4.50;1.00
15959;DHT22;8078;47.822;9.402;2024-01-11T10:02:25;-4.60;1.00
15959;DHT22;8078;47.822;9.402;2024-01-11T10:04:52;-4.80;1.00
15959;DHT22;8078;47.822;9.402;2024-01-11T10:07:22;-4.90;1.00
15959;DHT22;8078;47.822;9.402;2024-01-11T10:09:48;-5.00;1.00
15959;DHT22;8078;47.822;9.402;2024-01-11T10:12:13;-5.00;1.00
15959;DHT22;8078;47.822;9.402;2024-01-11T10:14:39;-4.90;1.00
15959;DHT22;8078;47.822;9.402;2024-01-11T10:17:06;-4.80;1.00
15959;DHT22;8078;47.822;9.402;2024-01-11T10:19:31;-4.70;1.00
15959;DHT22;8078;47.822;9.402;2024-01-11T10:21:57;-4.60;1.00
15959;DHT22;8078;47.822;9.402;2024-01-11T10:24:24;-4.50;1.00
15959;DHT22;8078;47.822;9.402;2024-01-11T10:27:00;-4.20;1.00
15959;DHT22;8078;47.822;9.402;2024-01-11T10:29:33;-4.10;1.00
15959;DHT22;8078;47.822;9.402;2024-01-11T10:31:59;-4.20;1.00
15959;DHT22;8078;47.822;9.402;2024-01-11T10:34:25;-4.20;1.00
15959;DHT22;8078;47.822;9.402;2024-01-11T10:36:51;-4.10;1.00
15959;DHT22;8078;47.822;9.402;2024-01-11T10:39:17;-4.00;1.00
15959;DHT22;8078;47.822;9.402;2024-01-11T10:41:47;-4.00;1.00
15959;DHT22;8078;47.822;9.402;2024-01-11T10:44:20;-4.00;1.00
15959;DHT22;8078;47.822;9.402;2024-01-11T10:46:50;-3.80;1.00
15959;DHT22;8078;47.822;9.402;2024-01-11T10:49:18;-3.60;1.00
15959;DHT22;8078;47.822;9.402;2024-01-11T10:51:55;-3.40;1.00
15959;DHT22;8078;47.822;9.402;2024-01-11T10:54:24;-3.30;1.00
15959;DHT22;8078;47.822;9.402;2024-01-11T10:56:50;-3.10;1.00
15959;DHT22;8078;47.822;9.402;2024-01-11T10:59:16;-2.80;1.00
15959;DHT22;8078;47.822;9.402;2024-01-11T11:01:44;-2.70;1.00
15959;DHT22;8078;47.822;9.402;2024-01-11T11:04:10;-2.50;1.00
15959;DHT22;8078;47.822;9.402;2024-01-11T11:06:37;-2.30;1.00
15959;DHT22;8078;47.822;9.402;2024-01-11T11:09:04;-2.00;1.00
15959;DHT22;8078;47.822;9.402;2024-01-11T11:11:31;-1.90;1.00
15959;DHT22;8078;47.822;9.402;2024-01-11T11:14:01;-1.90;1.00
15959;DHT22;8078;47.822;9.402;2024-01-11T11:16:26;-1.80;1.00
15959;DHT22;8078;47.822;9.402;2024-01-11T11:18:54;-1.70;1.00
15959;DHT22;8078;47.822;9.402;2024-01-11T11:21:20;-1.30;1.00
15959;DHT22;8078;47.822;9.402;2024-01-11T11:23:46;-0.80;1.00
15959;DHT22;8078;47.822;9.402;2024-01-11T11:26:16;-0.20;1.00
15959;DHT22;8078;47.822;9.402;2024-01-11T11:28:43;-0.10;1.00
15959;DHT22;8078;47.822;9.402;2024-01-11T11:31:10;-0.10;1.00
15959;DHT22;8078;47.822;9.402;2024-01-11T11:33:37;-0.10;1.00
15959;DHT22;8078;47.822;9.402;2024-01-11T11:36:03;-0.60;1.00
15959;DHT22;8078;47.822;9.402;2024-01-11T11:38:30;-0.80;1.00
15959;DHT22;8078;47.822;9.402;2024-01-11T11:40:57;-0.80;1.00
15959;DHT22;8078;47.822;9.402;2024-01-11T11:43:23;-0.80;1.00
15959;DHT22;8078;47.822;9.402;2024-01-11T11:45:50;-0.80;1.00
15959;DHT22;8078;47.822;9.402;2024-01-11T11:51:23;-1.40;1.00
15959;DHT22;8078;47.822;9.402;2024-01-11T11:53:51;-1.80;1.00
15959;DHT22;8078;47.822;9.402;2024-01-11T11:56:21;-2.00;1.00
15959;DHT22;8078;47.822;9.402;2024-01-11T11:58:48;-2.30;1.00
15959;DHT22;8078;47.822;9.402;2024-01-11T12:01:15;-2.20;1.00
15959;DHT22;8078;47.822;9.402;2024-01-11T12:03:43;-2.50;1.00
15959;DHT22;8078;47.822;9.402;2024-01-11T12:06:15;-2.50;1.00
15959;DHT22;8078;47.822;9.402;2024-01-11T12:08:42;-2.50;1.00
15959;DHT22;8078;47.822;9.402;2024-01-11T12:11:08;-2.50;1.00
15959;DHT22;8078;47.822;9.402;2024-01-11T12:13:35;-2.50;1.00
15959;DHT22;8078;47.822;9.402;2024-01-11T12:16:00;-2.80;1.00
15959;DHT22;8078;47.822;9.402;2024-01-11T12:18:26;-2.70;1.00
15959;DHT22;8078;47.822;9.402;2024-01-11T12:20:52;-2.60;1.00
15959;DHT22;8078;47.822;9.402;2024-01-11T12:23:19;-2.60;1.00
15959;DHT22;8078;47.822;9.402;2024-01-11T12:25:44;-2.70;1.00
15959;DHT22;8078;47.822;9.402;2024-01-11T12:28:10;-2.90;1.00
15959;DHT22;8078;47.822;9.402;2024-01-11T12:30:36;-3.10;1.00
15959;DHT22;8078;47.822;9.402;2024-01-11T12:33:03;-3.10;1.00
15959;DHT22;8078;47.822;9.402;2024-01-11T12:35:30;-2.90;1.00
15959;DHT22;8078;47.822;9.402;2024-01-11T12:38:04;-2.90;1.00
15959;DHT22;8078;47.822;9.402;2024-01-11T12:40:35;-2.80;1.00
15959;DHT22;8078;47.822;9.402;2024-01-11T12:43:01;-2.60;1.00
15959;DHT22;8078;47.822;9.402;2024-01-11T12:45:26;-2.60;1.00
15959;DHT22;8078;47.822;9.402;2024-01-11T12:47:53;-2.50;1.00
15959;DHT22;8078;47.822;9.402;2024-01-11T12:50:20;-2.60;1.00
15959;DHT22;8078;47.822;9.402;2024-01-11T12:52:46;-2.70;1.00
15959;DHT22;8078;47.822;9.402;2024-01-11T12:55:18;-2.70;1.00
15959;DHT22;8078;47.822;9.402;2024-01-11T12:57:45;-2.60;1.00
15959;DHT22;8078;47.822;9.402;2024-01-11T13:00:11;-2.50;1.00
15959;DHT22;8078;47.822;9.402;2024-01-11T13:02:37;-2.50;1.00
15959;DHT22;8078;47.822;9.402;2024-01-11T13:05:03;-2.50;1.00
15959;DHT22;8078;47.822;9.402;2024-01-11T13:07:30;-2.50;1.00
15959;DHT22;8078;47.822;9.402;2024-01-11T13:09:56;-2.50;1.00
15959;DHT22;8078;47.822;9.402;2024-01-11T13:12:22;-2.40;1.00
15959;DHT22;8078;47.822;9.402;2024-01-11T13:14:48;-2.30;1.00
15959;DHT22;8078;47.822;9.402;2024-01-11T13:17:14;-2.50;1.00
15959;DHT22;8078;47.822;9.402;2024-01-11T13:19:39;-2.60;1.00
15959;DHT22;8078;47.822;9.402;2024-01-11T13:22:05;-2.50;1.00
15959;DHT22;8078;47.822;9.402;2024-01-11T13:24:31;-2.40;1.00
15959;DHT22;8078;47.822;9.402;2024-01-11T13:26:56;-2.40;1.00
15959;DHT22;8078;47.822;9.402;2024-01-11T13:29:22;-2.50;1.00
15959;DHT22;8078;47.822;9.402;2024-01-11T13:31:47;-2.40;1.00
15959;DHT22;8078;47.822;9.402;2024-01-11T13:34:13;-2.40;1.00
15959;DHT22;8078;47.822;9.402;2024-01-11T13:36:39;-2.20;1.00
15959;DHT22;8078;47.822;9.402;2024-01-11T13:39:05;-1.90;1.00
15959;DHT22;8078;47.822;9.402;2024-01-11T13:41:33;-1.60;1.00
15959;DHT22;8078;47.822;9.402;2024-01-11T13:43:59;-1.50;1.00
15959;DHT22;8078;47.822;9.402;2024-01-11T13:46:24;-1.30;1.00
15959;DHT22;8078;47.822;9.402;2024-01-11T13:48:50;-1.60;1.00
15959;DHT22;8078;47.822;9.402;2024-01-11T13:51:15;-1.90;1.00
15959;DHT22;8078;47.822;9.402;2024-01-11T13:53:41;-2.00;1.00
15959;DHT22;8078;47.822;9.402;2024-01-11T13:56:07;-2.10;1.00
15959;DHT22;8078;47.822;9.402;2024-01-11T13:58:32;-2.30;1.00
15959;DHT22;8078;47.822;9.402;2024-01-11T14:00:58;-2.40;1.00
15959;DHT22;8078;47.822;9.402;2024-01-11T14:03:23;-2.60;1.00
15959;DHT22;8078;47.822;9.402;2024-01-11T14:05:49;-2.70;1.00
15959;DHT22;8078;47.822;9.402;2024-01-11T14:08:15;-2.80;1.00
15959;DHT22;8078;47.822;9.402;2024-01-11T14:10:41;-2.70;1.00
15959;DHT22;8078;47.822;9.402;2024-01-11T14:13:06;-2.60;1.00
15959;DHT22;8078;47.822;9.402;2024-01-11T14:15:32;-2.50;1.00
15959;DHT22;8078;47.822;9.402;2024-01-11T14:17:57;-2.50;1.00
15959;DHT22;8078;47.822;9.402;2024-01-11T14:20:23;-2.70;1.00
15959;DHT22;8078;47.822;9.402;2024-01-11T14:22:50;-2.70;1.00
15959;DHT22;8078;47.822;9.402;2024-01-11T14:25:19;-2.90;1.00
15959;DHT22;8078;47.822;9.402;2024-01-11T14:27:46;-3.00;1.00
15959;DHT22;8078;47.822;9.402;2024-01-11T14:30:13;-3.20;1.00
15959;DHT22;8078;47.822;9.402;2024-01-11T14:32:38;-3.20;1.00
15959;DHT22;8078;47.822;9.402;2024-01-11T14:35:05;-3.20;1.00
15959;DHT22;8078;47.822;9.402;2024-01-11T14:37:31;-3.30;1.00
15959;DHT22;8078;47.822;9.402;2024-01-11T14:39:57;-3.30;1.00
15959;DHT22;8078;47.822;9.402;2024-01-11T14:42:24;-3.20;1.00
15959;DHT22;8078;47.822;9.402;2024-01-11T14:44:49;-3.20;1.00
15959;DHT22;8078;47.822;9.402;2024-01-11T14:47:15;-3.10;1.00
15959;DHT22;8078;47.822;9.402;2024-01-11T14:49:41;-3.10;1.00
15959;DHT22;8078;47.822;9.402;2024-01-11T14:52:07;-3.20;1.00
15959;DHT22;8078;47.822;9.402;2024-01-11T14:54:32;-3.40;1.00
15959;DHT22;8078;47.822;9.402;2024-01-11T14:56:58;-3.50;1.00
15959;DHT22;8078;47.822;9.402;2024-01-11T14:59:24;-3.60;1.00
15959;DHT22;8078;47.822;9.402;2024-01-11T15:01:49;-3.90;1.00
15959;DHT22;8078;47.822;9.402;2024-01-11T15:04:15;-4.00;1.00
15959;DHT22;8078;47.822;9.402;2024-01-11T15:06:41;-4.20;1.00
15959;DHT22;8078;47.822;9.402;2024-01-11T15:09:07;-4.20;1.00
15959;DHT22;8078;47.822;9.402;2024-01-11T15:11:37;-4.20;1.00
15959;DHT22;8078;47.822;9.402;2024-01-11T15:14:03;-4.30;1.00
15959;DHT22;8078;47.822;9.402;2024-01-11T15:16:30;-4.40;1.00
15959;DHT22;8078;47.822;9.402;2024-01-11T15:18:56;-4.50;1.00
15959;DHT22;8078;47.822;9.402;2024-01-11T15:21:21;-4.50;1.00
15959;DHT22;8078;47.822;9.402;2024-01-11T15:23:47;-4.70;1.00
15959;DHT22;8078;47.822;9.402;2024-01-11T15:26:12;-4.60;1.00
15959;DHT22;8078;47.822;9.402;2024-01-11T15:28:38;-4.70;1.00
15959;DHT22;8078;47.822;9.402;2024-01-11T15:31:05;-4.70;1.00
15959;DHT22;8078;47.822;9.402;2024-01-11T15:33:31;-4.70;1.00
15959;DHT22;8078;47.822;9.402;2024-01-11T15:35:57;-4.70;1.00
15959;DHT22;8078;47.822;9.402;2024-01-11T15:38:22;-4.80;1.00
15959;DHT22;8078;47.822;9.402;2024-01-11T15:40:48;-4.80;1.00
15959;DHT22;8078;47.822;9.402;2024-01-11T15:43:13;-4.90;1.00
15959;DHT22;8078;47.822;9.402;2024-01-11T15:45:39;-4.90;1.00
15959;DHT22;8078;47.822;9.402;2024-01-11T15:48:05;-5.00;1.00
15959;DHT22;8078;47.822;9.402;2024-01-11T15:50:31;-5.00;1.00
15959;DHT22;8078;47.822;9.402;2024-01-11T15:52:56;-5.00;1.00
15959;DHT22;8078;47.822;9.402;2024-01-11T15:55:22;-5.00;1.00
15959;DHT22;8078;47.822;9.402;2024-01-11T15:57:47;-5.10;1.00
15959;DHT22;8078;47.822;9.402;2024-01-11T16:00:13;-5.10;1.00
15959;DHT22;8078;47.822;9.402;2024-01-11T16:02:39;-5.20;1.00
15959;DHT22;8078;47.822;9.402;2024-01-11T16:05:07;-5.20;1.00
15959;DHT22;8078;47.822;9.402;2024-01-11T16:07:33;-5.20;1.00
15959;DHT22;8078;47.822;9.402;2024-01-11T16:09:58;-5.30;1.00
15959;DHT22;8078;47.822;9.402;2024-01-11T16:12:24;-5.30;1.00
15959;DHT22;8078;47.822;9.402;2024-01-11T16:14:50;-5.30;1.00
15959;DHT22;8078;47.822;9.402;2024-01-11T16:17:16;-5.30;1.00
15959;DHT22;8078;47.822;9.402;2024-01-11T16:19:42;-5.30;1.00
15959;DHT22;8078;47.822;9.402;2024-01-11T16:22:08;-5.30;1.00
15959;DHT22;8078;47.822;9.402;2024-01-11T16:24:33;-5.20;1.00
15959;DHT22;8078;47.822;9.402;2024-01-11T16:26:59;-5.20;1.00
15959;DHT22;8078;47.822;9.402;2024-01-11T16:29:25;-5.20;1.00
15959;DHT22;8078;47.822;9.402;2024-01-11T16:31:50;-5.30;1.00
15959;DHT22;8078;47.822;9.402;2024-01-11T16:34:16;-5.30;1.00
15959;DHT22;8078;47.822;9.402;2024-01-11T16:36:42;-5.30;1.00
15959;DHT22;8078;47.822;9.402;2024-01-11T16:39:07;-5.30;1.00
15959;DHT22;8078;47.822;9.402;2024-01-11T16:41:38;-5.20;1.00
15959;DHT22;8078;47.822;9.402;2024-01-11T16:44:07;-5.20;1.00
15959;DHT22;8078;47.822;9.402;2024-01-11T16:46:33;-5.20;1.00
15959;DHT22;8078;47.822;9.402;2024-01-11T16:48:58;-5.30;1.00
15959;DHT22;8078;47.822;9.402;2024-01-11T16:51:27;-5.30;1.00
15959;DHT22;8078;47.822;9.402;2024-01-11T16:53:54;-5.30;1.00
15959;DHT22;8078;47.822;9.402;2024-01-11T16:56:19;-5.30;1.00
15959;DHT22;8078;47.822;9.402;2024-01-11T16:58:45;-5.30;1.00
15959;DHT22;8078;47.822;9.402;2024-01-11T17:01:10;-5.40;1.00
15959;DHT22;8078;47.822;9.402;2024-01-11T17:03:36;-5.40;1.00
15959;DHT22;8078;47.822;9.402;2024-01-11T17:06:02;-5.40;1.00
15959;DHT22;8078;47.822;9.402;2024-01-11T17:08:28;-5.40;1.00
15959;DHT22;8078;47.822;9.402;2024-01-11T17:10:54;-5.40;1.00
15959;DHT22;8078;47.822;9.402;2024-01-11T17:13:20;-5.40;1.00
15959;DHT22;8078;47.822;9.402;2024-01-11T17:15:47;-5.40;4.60
15959;DHT22;8078;47.822;9.402;2024-01-11T17:18:12;-5.50;8.20
15959;DHT22;8078;47.822;9.402;2024-01-11T17:20:38;-5.50;10.80
15959;DHT22;8078;47.822;9.402;2024-01-11T17:23:04;-5.50;11.30
15959;DHT22;8078;47.822;9.402;2024-01-11T17:25:29;-5.50;13.00
15959;DHT22;8078;47.822;9.402;2024-01-11T17:27:55;-5.60;7.60
15959;DHT22;8078;47.822;9.402;2024-01-11T17:30:21;-5.60;1.00
15959;DHT22;8078;47.822;9.402;2024-01-11T17:32:46;-5.60;1.00
15959;DHT22;8078;47.822;9.402;2024-01-11T17:35:12;-5.70;1.00
15959;DHT22;8078;47.822;9.402;2024-01-11T17:37:37;-5.80;1.00
15959;DHT22;8078;47.822;9.402;2024-01-11T17:40:06;-5.80;1.00
15959;DHT22;8078;47.822;9.402;2024-01-11T17:42:32;-5.80;1.00
15959;DHT22;8078;47.822;9.402;2024-01-11T17:44:58;-5.90;1.00
15959;DHT22;8078;47.822;9.402;2024-01-11T17:47:24;-5.90;1.00
15959;DHT22;8078;47.822;9.402;2024-01-11T17:49:50;-5.90;1.00
15959;DHT22;8078;47.822;9.402;2024-01-11T17:52:16;-5.90;1.00
15959;DHT22;8078;47.822;9.402;2024-01-11T17:54:41;-5.90;1.00
15959;DHT22;8078;47.822;9.402;2024-01-11T17:57:07;-5.90;1.00
15959;DHT22;8078;47.822;9.402;2024-01-11T17:59:33;-5.90;1.00
15959;DHT22;8078;47.822;9.402;2024-01-11T18:01:58;-5.90;1.00
15959;DHT22;8078;47.822;9.402;2024-01-11T18:04:24;-5.90;1.00
15959;DHT22;8078;47.822;9.402;2024-01-11T18:06:50;-5.90;1.00
15959;DHT22;8078;47.822;9.402;2024-01-11T18:09:15;-5.80;1.00
15959;DHT22;8078;47.822;9.402;2024-01-11T18:11:42;-5.80;1.00
15959;DHT22;8078;47.822;9.402;2024-01-11T18:14:10;-5.80;1.00
15959;DHT22;8078;47.822;9.402;2024-01-11T18:16:36;-5.80;1.00
15959;DHT22;8078;47.822;9.402;2024-01-11T18:19:01;-5.80;6.40
15959;DHT22;8078;47.822;9.402;2024-01-11T18:21:27;-5.80;1.00
15959;DHT22;8078;47.822;9.402;2024-01-11T18:23:53;-5.80;1.00
15959;DHT22;8078;47.822;9.402;2024-01-11T18:26:19;-5.80;1.00
15959;DHT22;8078;47.822;9.402;2024-01-11T18:28:45;-5.80;1.00
15959;DHT22;8078;47.822;9.402;2024-01-11T18:31:17;-5.80;1.00
15959;DHT22;8078;47.822;9.402;2024-01-11T18:33:43;-5.80;4.30
15959;DHT22;8078;47.822;9.402;2024-01-11T18:36:10;-5.80;12.70
15959;DHT22;8078;47.822;9.402;2024-01-11T18:38:36;-5.80;21.20
15959;DHT22;8078;47.822;9.402;2024-01-11T18:41:03;-5.80;23.90
15959;DHT22;8078;47.822;9.402;2024-01-11T18:43:30;-5.70;24.50
15959;DHT22;8078;47.822;9.402;2024-01-11T18:45:55;-5.80;27.30
15959;DHT22;8078;47.822;9.402;2024-01-11T18:48:21;-5.80;20.90
15959;DHT22;8078;47.822;9.402;2024-01-11T18:50:47;-5.80;18.60
15959;DHT22;8078;47.822;9.402;2024-01-11T18:53:12;-5.70;23.60
15959;DHT22;8078;47.822;9.402;2024-01-11T18:55:38;-5.70;28.80
15959;DHT22;8078;47.822;9.402;2024-01-11T18:58:03;-5.70;26.70
15959;DHT22;8078;47.822;9.402;2024-01-11T19:00:29;-5.70;31.00
15959;DHT22;8078;47.822;9.402;2024-01-11T19:02:58;-5.70;28.40
15959;DHT22;8078;47.822;9.402;2024-01-11T19:05:23;-5.70;23.90
15959;DHT22;8078;47.822;9.402;2024-01-11T19:07:49;-5.70;25.10
15959;DHT22;8078;47.822;9.402;2024-01-11T19:10:16;-5.70;32.10
15959;DHT22;8078;47.822;9.402;2024-01-11T19:12:41;-5.70;22.00
15959;DHT22;8078;47.822;9.402;2024-01-11T19:15:07;-5.70;22.40
15959;DHT22;8078;47.822;9.402;2024-01-11T19:17:34;-5.70;16.50
15959;DHT22;8078;47.822;9.402;2024-01-11T19:20:00;-5.70;16.20
15959;DHT22;8078;47.822;9.402;2024-01-11T19:22:26;-5.70;15.50
15959;DHT22;8078;47.822;9.402;2024-01-11T19:24:51;-5.70;15.00
15959;DHT22;8078;47.822;9.402;2024-01-11T19:27:17;-5.70;44.80
15959;DHT22;8078;47.822;9.402;2024-01-11T19:29:44;-5.60;68.40
15959;DHT22;8078;47.822;9.402;2024-01-11T19:32:10;-5.60;50.60
15959;DHT22;8078;47.822;9.402;2024-01-11T19:34:36;-5.50;54.70
15959;DHT22;8078;47.822;9.402;2024-01-11T19:37:03;-5.60;11.20
15959;DHT22;8078;47.822;9.402;2024-01-11T19:39:29;-5.60;1.00
15959;DHT22;8078;47.822;9.402;2024-01-11T19:41:54;-5.70;1.00
15959;DHT22;8078;47.822;9.402;2024-01-11T19:44:20;-5.70;1.00